Aeroporto :
LOGIN :

Iscrizione | Disclaimer

   EN    FR    IT 

 










Sommario :    VFR   VFR Marginale   IFR   IFR Intensivo   IFR Molto Intensivo
Visibilità : 
Base nubi : 
>= 8 km
>= 3000ft
5 / 8 km
1000 / 3000 ft
1500m / 5 km
500 / 1000 ft
800 / 1500m
200 / 500 ft
< 800m
< 200 ft
Simboli :   Temporali  Nebbia  Neve Forte  Precipitazioni Forti  Vento > 20 kt
SIGMETs :   Varie  Temporali  Ghiacco  Turbolenza  Onda orograficha  Ceneri Vulcaniche






- Altitudine del aeroporto : 113 ft


EKRS - Ringsted

ULTIMO METAR :
  • 172350Z AUTO 24007KT 180V300 4400 UP BR OVC006/// 07/07 Q1010

METARs OBSOLETI :
  • 172320Z AUTO 24007KT 180V280 5000 OVC007/// 07/07 Q1010
  • 172250Z AUTO 23007KT 150V280 4800 -RA BR SCT006/// OVC008/// 06/06 Q1010
  • 172220Z AUTO 23006KT 180V280 3500 -DZ BR OVC004/// 06/06 Q1010
  • 172150Z AUTO 22005KT 190V260 3100 BR OVC004/// 06/06 Q1010
  • 172120Z AUTO 22006KT 170V280 7000 SCT006/// OVC017/// 06/06 Q1010

TAF N/A



MetMap, La meteo Aeronautica in un colpo d'occhio ! - Copyright ORBIFLY Dicembre 2007 - Disclaimer

ORBIFLY MET'MAP TEAM :

Programmazione e sviluppo : Alexandra Zaïnal
Concezione : Baudouin d'Aumeries
Aiuto per la programmazione : Marc-Olivier Méhu
Supporto tecnico e logistico : Manuel Goepfert
Aiuto per la traduzione : Arnaldo La Scala

Contatto : metmap@orbifly.com




FONTI E CREDITI :

   NOAA